Time;durP1;ratioP1;P1;durP2;ratioP2;P2;SDS_P1;SDS_P2;PMS_P1;PMS_P2;Temp;Humidity;BMP_temperature;BMP_pressure;BME280_temperature;BME280_humidity;BME280_pressure;Samples;Min_cycle;Max_cycle;Signal;HPM_P1;HPM_P2
2024/01/30 00:01:54;;;;;;;4.40;3.25;;;;;;;;;;20846677;28;20045;-73
2024/01/30 00:12:14;;;;;;;4.22;3.45;;;;;;;;;;20824888;28;20095;-73
2024/01/30 00:22:33;;;;;;;5.05;3.40;;;;;;;;;;20845433;28;20049;-73
2024/01/30 00:32:53;;;;;;;3.95;3.17;;;;;;;;;;20828833;28;20453;-73
2024/01/30 00:43:12;;;;;;;3.78;3.00;;;;;;;;;;20842785;28;20037;-73
2024/01/30 00:53:32;;;;;;;3.75;3.10;;;;;;;;;;20820249;28;20053;-73
2024/01/30 01:03:51;;;;;;;4.43;3.22;;;;;;;;;;20816602;28;20048;-74
2024/01/30 01:14:10;;;;;;;4.35;3.15;;;;;;;;;;20842579;28;20037;-73
2024/01/30 01:24:33;;;;;;;3.58;3.15;;;;;;;;;;20842296;28;20045;-74
2024/01/30 01:34:53;;;;;;;4.20;3.33;;;;;;;;;;20822963;28;20053;-74
2024/01/30 01:45:12;;;;;;;4.00;3.00;;;;;;;;;;20834387;28;20520;-74
2024/01/30 01:55:33;;;;;;;3.38;3.08;;;;;;;;;;20823872;28;20095;-70
2024/01/30 02:05:52;;;;;;;4.38;3.08;;;;;;;;;;20845254;28;20038;-70
2024/01/30 02:16:11;;;;;;;3.17;2.88;;;;;;;;;;20855441;28;20054;-70
2024/01/30 02:26:31;;;;;;;5.13;3.50;;;;;;;;;;20824147;28;20042;-70
2024/01/30 02:36:50;;;;;;;3.10;2.80;;;;;;;;;;20853623;28;20049;-70
2024/01/30 02:47:10;;;;;;;4.50;3.10;;;;;;;;;;20840765;28;20053;-73
2024/01/30 02:57:29;;;;;;;4.00;3.22;;;;;;;;;;20852592;28;20410;-74
2024/01/30 03:07:48;;;;;;;3.15;2.80;;;;;;;;;;20852615;28;20037;-74
2024/01/30 03:18:08;;;;;;;3.05;2.75;;;;;;;;;;20850878;28;20045;-74
2024/01/30 03:28:28;;;;;;;3.03;2.80;;;;;;;;;;20826393;28;20041;-74
2024/01/30 03:38:47;;;;;;;4.25;2.85;;;;;;;;;;20822687;28;20457;-74
2024/01/30 03:49:07;;;;;;;3.22;2.92;;;;;;;;;;20831690;28;20057;-69
2024/01/30 03:59:26;;;;;;;3.22;2.92;;;;;;;;;;20819462;28;20486;-71
2024/01/30 04:09:46;;;;;;;3.25;2.95;;;;;;;;;;20845471;28;20045;-71
2024/01/30 04:20:05;;;;;;;2.88;2.58;;;;;;;;;;20834340;28;20052;-70
2024/01/30 04:30:25;;;;;;;2.78;2.53;;;;;;;;;;20844759;28;20387;-70
2024/01/30 04:40:44;;;;;;;3.20;2.90;;;;;;;;;;20843407;28;20045;-70
2024/01/30 04:51:04;;;;;;;3.03;2.80;;;;;;;;;;20821528;28;20062;-69
2024/01/30 05:01:23;;;;;;;3.30;3.00;;;;;;;;;;20844036;28;20045;-74
2024/01/30 05:11:43;;;;;;;3.03;2.70;;;;;;;;;;20843325;28;20049;-74
2024/01/30 05:22:02;;;;;;;3.17;2.60;;;;;;;;;;20815658;28;20482;-75
2024/01/30 05:32:21;;;;;;;5.97;2.97;;;;;;;;;;20843372;28;20038;-74
2024/01/30 05:42:41;;;;;;;3.22;2.92;;;;;;;;;;20848878;28;20111;-73
2024/01/30 05:53:00;;;;;;;3.58;3.00;;;;;;;;;;20830246;28;20064;-72
2024/01/30 06:03:21;;;;;;;6.38;3.00;;;;;;;;;;20855908;28;20057;-74
2024/01/30 06:13:40;;;;;;;4.65;3.05;;;;;;;;;;20829243;28;20056;-67
2024/01/30 06:24:00;;;;;;;9.73;4.30;;;;;;;;;;20854034;28;20042;-68
2024/01/30 06:34:19;;;;;;;10.98;4.60;;;;;;;;;;20847951;28;20049;-67
2024/01/30 06:44:38;;;;;;;11.45;4.95;;;;;;;;;;20845441;28;20067;-70
2024/01/30 06:54:58;;;;;;;11.77;5.07;;;;;;;;;;20827265;28;20061;-73
2024/01/30 07:05:17;;;;;;;11.57;5.18;;;;;;;;;;20854730;28;20041;-74
2024/01/30 07:15:36;;;;;;;13.68;5.70;;;;;;;;;;20853522;28;20045;-72
2024/01/30 07:25:56;;;;;;;11.75;5.53;;;;;;;;;;20851038;28;20490;-68
2024/01/30 07:36:15;;;;;;;9.80;5.20;;;;;;;;;;20849880;28;20046;-68
2024/01/30 07:46:35;;;;;;;13.05;5.68;;;;;;;;;;20836835;28;20049;-67
2024/01/30 07:56:55;;;;;;;10.18;5.53;;;;;;;;;;20848294;28;20390;-68
2024/01/30 08:07:14;;;;;;;10.00;5.68;;;;;;;;;;20833997;28;20414;-73
2024/01/30 08:17:34;;;;;;;11.63;5.85;;;;;;;;;;20780100;28;20767;-73
2024/01/30 08:27:53;;;;;;;9.82;5.30;;;;;;;;;;20840015;28;20541;-73
2024/01/30 08:38:13;;;;;;;11.60;5.45;;;;;;;;;;20846341;28;20052;-73
2024/01/30 08:48:32;;;;;;;10.15;5.07;;;;;;;;;;20826207;28;20151;-73
2024/01/30 08:58:51;;;;;;;8.75;5.03;;;;;;;;;;20847179;28;20438;-75
2024/01/30 09:09:12;;;;;;;9.00;4.95;;;;;;;;;;20762771;28;20077;-68
2024/01/30 09:19:31;;;;;;;6.75;4.80;;;;;;;;;;20841234;28;20119;-67
2024/01/30 09:29:51;;;;;;;7.65;4.38;;;;;;;;;;20842834;28;20498;-67
2024/01/30 09:40:11;;;;;;;8.30;4.93;;;;;;;;;;20838113;28;20049;-68
2024/01/30 09:50:31;;;;;;;6.35;4.45;;;;;;;;;;20814792;28;20061;-67
2024/01/30 10:00:50;;;;;;;7.20;4.57;;;;;;;;;;20822769;28;20044;-67
2024/01/30 10:11:09;;;;;;;7.88;4.30;;;;;;;;;;20841039;28;20049;-68
2024/01/30 10:21:32;;;;;;;6.45;4.30;;;;;;;;;;20759901;28;20049;-68
2024/01/30 10:32:01;;;;;;;6.40;4.43;;;;;;;;;;20851660;28;20045;-67
2024/01/30 10:42:23;;;;;;;7.00;4.13;;;;;;;;;;20854042;28;20049;-68
2024/01/30 10:52:43;;;;;;;7.78;4.20;;;;;;;;;;20826443;28;20073;-74
2024/01/30 11:03:03;;;;;;;6.32;4.40;;;;;;;;;;20857275;28;20045;-74
2024/01/30 11:13:26;;;;;;;5.25;4.13;;;;;;;;;;20855963;28;20470;-73
2024/01/30 11:23:46;;;;;;;4.65;3.72;;;;;;;;;;20855512;28;20414;-73
2024/01/30 11:34:06;;;;;;;5.05;3.75;;;;;;;;;;20853157;28;20057;-73
2024/01/30 11:44:25;;;;;;;4.88;3.72;;;;;;;;;;20848068;28;20042;-73
2024/01/30 11:54:45;;;;;;;5.05;3.60;;;;;;;;;;20826799;28;20065;-73
2024/01/30 12:05:04;;;;;;;4.10;3.40;;;;;;;;;;20852323;28;20099;-74
2024/01/30 12:15:24;;;;;;;7.93;3.75;;;;;;;;;;20849384;28;20472;-68
2024/01/30 12:25:44;;;;;;;5.47;3.60;;;;;;;;;;20846195;28;20103;-67
2024/01/30 12:36:04;;;;;;;3.53;3.20;;;;;;;;;;20843323;28;20045;-67
2024/01/30 12:46:29;;;;;;;4.35;3.40;;;;;;;;;;20833973;28;20057;-67
2024/01/30 12:56:48;;;;;;;4.15;3.38;;;;;;;;;;20844278;28;20175;-68
2024/01/30 13:07:08;;;;;;;3.25;2.92;;;;;;;;;;20843703;28;20045;-67
2024/01/30 13:17:27;;;;;;;3.70;3.20;;;;;;;;;;20843272;28;20529;-68
2024/01/30 13:27:47;;;;;;;3.53;3.20;;;;;;;;;;20841529;28;20464;-67
2024/01/30 13:38:06;;;;;;;3.97;3.20;;;;;;;;;;20842296;28;20049;-67
2024/01/30 13:48:25;;;;;;;4.45;3.10;;;;;;;;;;20815573;28;20060;-67
2024/01/30 13:58:45;;;;;;;3.65;2.90;;;;;;;;;;20841785;28;20593;-67
2024/01/30 14:09:05;;;;;;;3.67;3.22;;;;;;;;;;20855912;28;20056;-67
2024/01/30 14:19:24;;;;;;;3.55;3.10;;;;;;;;;;20857398;28;20041;-74
2024/01/30 14:29:44;;;;;;;3.63;3.22;;;;;;;;;;20858703;28;20567;-74
2024/01/30 14:40:03;;;;;;;3.75;2.97;;;;;;;;;;20845823;28;20107;-74
2024/01/30 14:50:23;;;;;;;3.78;3.30;;;;;;;;;;20836360;28;20054;-73
2024/01/30 15:00:43;;;;;;;3.72;3.30;;;;;;;;;;20851567;28;20052;-77
2024/01/30 15:11:04;;;;;;;6.05;3.13;;;;;;;;;;20848295;28;20053;-75
2024/01/30 15:21:23;;;;;;;7.90;5.82;;;;;;;;;;20849978;28;20041;-75
2024/01/30 15:31:43;;;;;;;6.10;5.50;;;;;;;;;;20850042;28;20041;-70
2024/01/30 15:42:02;;;;;;;5.88;5.30;;;;;;;;;;20840999;28;20726;-70
2024/01/30 15:52:22;;;;;;;5.88;5.07;;;;;;;;;;20818728;28;20418;-69
2024/01/30 16:02:41;;;;;;;6.40;5.45;;;;;;;;;;20835467;28;20044;-70
2024/01/30 16:13:01;;;;;;;5.25;4.75;;;;;;;;;;20823783;28;20046;-69
2024/01/30 16:23:20;;;;;;;5.95;5.38;;;;;;;;;;20844608;28;20060;-69
2024/01/30 16:33:40;;;;;;;6.32;4.82;;;;;;;;;;20828714;28;20053;-70
2024/01/30 16:43:59;;;;;;;5.55;4.97;;;;;;;;;;20834636;28;20045;-69
2024/01/30 17:02:14;;;;;;;8.50;5.90;;;;;;;;;;21128467;27;20405;-51
2024/01/30 17:12:34;;;;;;;7.45;4.90;;;;;;;;;;21090127;28;20724;-59
2024/01/30 17:22:54;;;;;;;8.93;5.00;;;;;;;;;;21021484;28;20057;-57
2024/01/30 17:33:13;;;;;;;10.32;4.70;;;;;;;;;;21059413;28;20059;-56
2024/01/30 17:43:33;;;;;;;5.93;4.45;;;;;;;;;;21049762;28;20071;-58
2024/01/30 17:53:52;;;;;;;5.63;4.53;;;;;;;;;;21046553;28;20078;-57
2024/01/30 18:04:12;;;;;;;4.88;4.30;;;;;;;;;;21055842;28;20055;-59
2024/01/30 18:14:31;;;;;;;5.80;4.18;;;;;;;;;;21032336;28;20041;-54
2024/01/30 18:24:50;;;;;;;5.30;4.43;;;;;;;;;;21023871;28;20040;-51
2024/01/30 18:35:10;;;;;;;4.65;4.15;;;;;;;;;;20992614;28;20048;-51
2024/01/30 18:45:29;;;;;;;4.50;4.10;;;;;;;;;;21017270;28;20119;-48
2024/01/30 18:55:49;;;;;;;4.43;4.03;;;;;;;;;;21006741;28;20059;-47
2024/01/30 19:06:10;;;;;;;7.35;3.92;;;;;;;;;;20961936;28;20045;-51
2024/01/30 19:16:29;;;;;;;6.07;4.38;;;;;;;;;;20954124;28;20052;-53
2024/01/30 19:26:49;;;;;;;5.88;4.32;;;;;;;;;;20965189;28;20052;-52
2024/01/30 19:37:09;;;;;;;10.65;4.00;;;;;;;;;;20993091;28;20599;-55
2024/01/30 19:47:29;;;;;;;8.77;4.47;;;;;;;;;;20979942;28;20509;-56
2024/01/30 19:57:48;;;;;;;6.00;4.22;;;;;;;;;;20960844;28;20048;-55
2024/01/30 20:08:08;;;;;;;7.88;4.32;;;;;;;;;;20967054;28;20484;-56
2024/01/30 20:18:30;;;;;;;6.30;4.32;;;;;;;;;;20941194;28;20103;-56
2024/01/30 20:28:54;;;;;;;6.03;4.18;;;;;;;;;;20973710;28;20055;-49
2024/01/30 20:39:15;;;;;;;8.40;4.22;;;;;;;;;;20994273;28;20503;-54
2024/01/30 20:49:35;;;;;;;4.72;4.00;;;;;;;;;;20965169;28;20049;-55
2024/01/30 20:59:55;;;;;;;5.68;4.25;;;;;;;;;;20961353;28;20759;-56
2024/01/30 21:10:14;;;;;;;5.35;4.07;;;;;;;;;;20983397;28;20048;-55
2024/01/30 21:20:34;;;;;;;6.85;4.00;;;;;;;;;;20943168;28;20049;-51
2024/01/30 21:30:54;;;;;;;5.50;4.05;;;;;;;;;;20937942;28;20397;-52
2024/01/30 21:41:15;;;;;;;5.75;4.28;;;;;;;;;;20940212;28;20049;-45
2024/01/30 21:51:34;;;;;;;5.95;4.30;;;;;;;;;;20952246;28;20079;-53
2024/01/30 22:01:54;;;;;;;6.20;4.22;;;;;;;;;;20955008;28;20177;-54
2024/01/30 22:12:13;;;;;;;6.78;4.25;;;;;;;;;;21016368;28;20378;-54
2024/01/30 22:22:36;;;;;;;6.13;4.15;;;;;;;;;;20973027;28;20527;-52
2024/01/30 22:32:56;;;;;;;5.07;4.00;;;;;;;;;;20985738;28;20686;-51
2024/01/30 22:43:15;;;;;;;5.93;4.10;;;;;;;;;;20959496;28;20056;-53
2024/01/30 22:53:34;;;;;;;5.13;3.72;;;;;;;;;;20950720;28;20493;-52
2024/01/30 23:03:54;;;;;;;6.68;3.90;;;;;;;;;;20928514;28;20053;-53
2024/01/30 23:14:13;;;;;;;4.35;3.50;;;;;;;;;;20995444;28;20504;-52
2024/01/30 23:24:33;;;;;;;5.57;3.78;;;;;;;;;;21000334;28;20109;-53
2024/01/30 23:34:52;;;;;;;4.72;3.70;;;;;;;;;;20991542;28;20048;-50
2024/01/30 23:45:11;;;;;;;4.00;3.60;;;;;;;;;;20997710;28;20060;-50
2024/01/30 23:55:30;;;;;;;3.70;3.35;;;;;;;;;;21032381;28;20060;-50
